| Date | Time | Temp. (oF) | Dew Point (oF) | Rel. Hum. (%) | Press. (in.) | Wind Dir. | Wind Speed (mph) | Hourly Rainfall (in.) |
|
|---|---|---|---|---|---|---|---|---|---|
| 1 | 04/22 | 00:00 | 52 | 51 | 97 | 29.76 | SW | 3 | 0.00 |
| 2 | 04/21 | 23:00 | 51 | 50 | 97 | 29.76 | SW | 3 | 0.00 |
| 3 | 04/21 | 22:00 | 52 | 50 | 94 | 29.77 | SE | 2 | 0.00 |
| 4 | 04/21 | 21:00 | 53 | 50 | 91 | 29.77 | SSW | 0 | 0.00 |
| 5 | 04/21 | 20:00 | 54 | 51 | 90 | 29.76 | SSW | 1 | 0.00 |
| 6 | 04/21 | 19:00 | 55 | 51 | 87 | 29.75 | SSW | 3 | 0.00 |
| 7 | 04/21 | 18:00 | 56 | 51 | 85 | 29.76 | SSE | 5 | 0.00 |
| 8 | 04/21 | 17:00 | 57 | 51 | 83 | 29.77 | SSW | 2 | 0.01 |
| 9 | 04/21 | 16:00 | 58 | 53 | 85 | 29.78 | SW | 5 | 0.01 |
| 10 | 04/21 | 15:00 | 59 | 54 | 85 | 29.78 | S | 4 | 0.00 |
| 11 | 04/21 | 14:00 | 57 | 54 | 90 | 29.80 | SSW | 4 | 0.00 |
| 12 | 04/21 | 13:00 | 56 | 53 | 91 | 29.81 | SW | 2 | 0.02 |
| 13 | 04/21 | 12:00 | 55 | 53 | 93 | 29.82 | S | 3 | 0.02 |
| 14 | 04/21 | 11:00 | 55 | 50 | 86 | 29.82 | S | 1 | 0.00 |
| 15 | 04/21 | 10:00 | 58 | 50 | 77 | 29.82 | SSW | 2 | 0.00 |
| 16 | 04/21 | 09:00 | 52 | 48 | 89 | 29.82 | SSW | 1 | 0.00 |
| 17 | 04/21 | 08:00 | 47 | 45 | 94 | 29.83 | S | 1 | 0.00 |
| 18 | 04/21 | 07:00 | 43 | 41 | 96 | 29.83 | NNE | 1 | 0.00 |
| 19 | 04/21 | 06:00 | 42 | 40 | 94 | 29.83 | SW | 1 | 0.00 |
| 20 | 04/21 | 05:00 | 43 | 40 | 91 | 29.83 | SW | 0 | 0.00 |
| 21 | 04/21 | 04:00 | 45 | 41 | 89 | 29.84 | SSW | 0 | 0.00 |
| 22 | 04/21 | 03:00 | 46 | 41 | 85 | 29.84 | SSW | 0 | 0.00 |
| 23 | 04/21 | 02:00 | 48 | 42 | 80 | 29.86 | SSW | 0 | 0.00 |
| 24 | 04/21 | 01:00 | 49 | 41 | 75 | 29.88 | SSW | 0 | 0.00 |